Zim Hamburg — D5EY9 — position and weather

sailwx.info

Track history (hours):
 
Tides and Currents Weather Stations Pressure Air Temp Water Temp Dewpoint Dewpoint Depression Visibility Wind Speed Wind Dir Waves Ship Positions

Zim Hamburg

Last reported at 2017-Nov-24 07:30 UTC. Time now 2017-Nov-24 07:31 UTC.
Position N 31°19' E 121°43'.

Length 293 m; draft 9.5 m.

Type: Ship (hazmat cat A). MMSI: 635961393.

Date/timePositionNaut miles runAvg speedWind from/ knotsBaromVisibWave heightAir tempDewpointWater temp
2017-Nov-24 07:30N 31°19' E 121°43'3 5.8
2017-Nov-24 07:00N 31°20' E 121°40'0 0.6
2017-Nov-24 06:30N 31°20' E 121°40'0 0.0
2017-Nov-24 06:00N 31°20' E 121°40'0 0.0
2017-Nov-24 05:30N 31°20' E 121°40'0 0.0
2017-Nov-24 04:57N 31°20' E 121°40'0 0.0
2017-Nov-24 04:30N 31°20' E 121°40'0 0.0
2017-Nov-24 04:00N 31°20' E 121°40'0 0.0
2017-Nov-24 03:30N 31°20' E 121°40'0 0.0
2017-Nov-24 03:00N 31°20' E 121°40'0 0.0
2017-Nov-24 02:30N 31°20' E 121°40'0 0.0
2017-Nov-24 02:00N 31°20' E 121°40'0 0.0
2017-Nov-24 01:30N 31°20' E 121°40'0 0.0
2017-Nov-24 01:00N 31°20' E 121°40'0 0.0
2017-Nov-24 00:30N 31°20' E 121°40'0 0.0
2017-Nov-24 00:00N 31°20' E 121°40'0 0.0
2017-Nov-23 23:30N 31°20' E 121°40'0 0.0
2017-Nov-23 22:57N 31°20' E 121°40'0 0.0
2017-Nov-23 22:27N 31°20' E 121°40'0 0.1
2017-Nov-23 22:00N 31°20' E 121°40'0 0.0
2017-Nov-23 21:30N 31°20' E 121°40'0 0.0
2017-Nov-23 21:00N 31°20' E 121°40'0 0.0
2017-Nov-23 20:30N 31°20' E 121°40'0 0.0
2017-Nov-23 20:00N 31°20' E 121°40'0 0.0
2017-Nov-23 19:30N 31°20' E 121°40'0 0.1
2017-Nov-23 19:00N 31°20' E 121°40'2 3.2
2017-Nov-23 18:30N 31°20' E 121°42'4 8.8
2017-Nov-23 18:00N 31°18' E 121°47'611.4
2017-Nov-23 17:30N 31°16' E 121°53'5 9.9
2017-Nov-23 17:00N 31°15' E 121°58'5 9.7
2017-Nov-23 16:30N 31°14' E 122°04'510.8
2017-Nov-23 16:00N 31°12' E 122°09'510.1
2017-Nov-23 15:30N 31°09' E 122°14'4 8.8
2017-Nov-23 15:00N 31°06' E 122°19'4 9.0
2017-Nov-23 14:30N 31°07' E 122°24'4 8.4
2017-Nov-23 14:00N 31°08' E 122°28'3 5.8
2017-Nov-23 13:30N 31°10' E 122°30'3 5.8
2017-Nov-23 12:59N 31°12' E 122°33'2 3.2
2017-Nov-23 12:30N 31°13' E 122°35'0 0.1
2017-Nov-23 12:00N 31°13' E 122°35'0 0.0
2017-Nov-23 11:27N 31°13' E 122°35'0 0.0
2017-Nov-23 11:00N 31°13' E 122°35'0 0.1
2017-Nov-23 10:27N 31°13' E 122°35'0 0.0
2017-Nov-23 09:54N 31°13' E 122°35'0 0.0
2017-Nov-23 09:18N 31°13' E 122°35'0 0.1
2017-Nov-23 08:42N 31°13' E 122°35'0 0.0
2017-Nov-23 06:30N 31°13' E 122°35'0 0.1
2017-Nov-23 03:15N 31°13' E 122°35'0 0.0
2017-Nov-23 01:57N 31°13' E 122°35'0 0.0
2017-Nov-23 01:30N 31°13' E 122°35'0 0.0
2017-Nov-23 00:54N 31°13' E 122°35'0 0.0
2017-Nov-23 00:30N 31°13' E 122°35'0 0.0
2017-Nov-23 00:00N 31°13' E 122°35'0 0.1
2017-Nov-22 23:12N 31°13' E 122°35'0 0.0
2017-Nov-22 23:00N 31°13' E 122°35'0 0.0
2017-Nov-22 22:30N 31°13' E 122°35'0 0.0
2017-Nov-22 21:57N 31°13' E 122°35'0 0.0
2017-Nov-22 21:30N 31°13' E 122°35'0 0.0
2017-Nov-22 20:54N 31°13' E 122°35'0 0.1
2017-Nov-22 20:21N 31°13' E 122°35'0 0.0
2017-Nov-22 19:48N 31°13' E 122°35'0 0.1
2017-Nov-22 19:18N 31°13' E 122°35'  
2017-Nov-18 08:43N 38°15' E 121°32'  
Track history (hours):
 
Tides and Currents Weather Stations Pressure Air Temp Water Temp Dewpoint Dewpoint Depression Visibility Wind Speed Wind Dir Waves Ship Positions

Zim Hamburg

Last reported at 2017-Nov-24 07:30 UTC. Time now 2017-Nov-24 07:31 UTC.
Position N 31°19' E 121°43'.

Length 293 m; draft 9.5 m.

Type: Ship (hazmat cat A). MMSI: 635961393.

Date/timePositionNaut miles runAvg speedWind from/ knotsBaromVisibWave heightAir tempDewpointWater temp
2017-Nov-24 07:30N 31°19' E 121°43'3 5.8
2017-Nov-24 07:00N 31°20' E 121°40'0 0.6
2017-Nov-24 06:30N 31°20' E 121°40'0 0.0
2017-Nov-24 06:00N 31°20' E 121°40'0 0.0
2017-Nov-24 05:30N 31°20' E 121°40'0 0.0
2017-Nov-24 04:57N 31°20' E 121°40'0 0.0
2017-Nov-24 04:30N 31°20' E 121°40'0 0.0
2017-Nov-24 04:00N 31°20' E 121°40'0 0.0
2017-Nov-24 03:30N 31°20' E 121°40'0 0.0
2017-Nov-24 03:00N 31°20' E 121°40'0 0.0
2017-Nov-24 02:30N 31°20' E 121°40'0 0.0
2017-Nov-24 02:00N 31°20' E 121°40'0 0.0
2017-Nov-24 01:30N 31°20' E 121°40'0 0.0
2017-Nov-24 01:00N 31°20' E 121°40'0 0.0
2017-Nov-24 00:30N 31°20' E 121°40'0 0.0
2017-Nov-24 00:00N 31°20' E 121°40'0 0.0
2017-Nov-23 23:30N 31°20' E 121°40'0 0.0
2017-Nov-23 22:57N 31°20' E 121°40'0 0.0
2017-Nov-23 22:27N 31°20' E 121°40'0 0.1
2017-Nov-23 22:00N 31°20' E 121°40'0 0.0
2017-Nov-23 21:30N 31°20' E 121°40'0 0.0
2017-Nov-23 21:00N 31°20' E 121°40'0 0.0
2017-Nov-23 20:30N 31°20' E 121°40'0 0.0
2017-Nov-23 20:00N 31°20' E 121°40'0 0.0
2017-Nov-23 19:30N 31°20' E 121°40'0 0.1
2017-Nov-23 19:00N 31°20' E 121°40'2 3.2
2017-Nov-23 18:30N 31°20' E 121°42'4 8.8
2017-Nov-23 18:00N 31°18' E 121°47'611.4
2017-Nov-23 17:30N 31°16' E 121°53'5 9.9
2017-Nov-23 17:00N 31°15' E 121°58'5 9.7
2017-Nov-23 16:30N 31°14' E 122°04'510.8
2017-Nov-23 16:00N 31°12' E 122°09'510.1
2017-Nov-23 15:30N 31°09' E 122°14'4 8.8
2017-Nov-23 15:00N 31°06' E 122°19'4 9.0
2017-Nov-23 14:30N 31°07' E 122°24'4 8.4
2017-Nov-23 14:00N 31°08' E 122°28'3 5.8
2017-Nov-23 13:30N 31°10' E 122°30'3 5.8
2017-Nov-23 12:59N 31°12' E 122°33'2 3.2
2017-Nov-23 12:30N 31°13' E 122°35'0 0.1
2017-Nov-23 12:00N 31°13' E 122°35'0 0.0
2017-Nov-23 11:27N 31°13' E 122°35'0 0.0
2017-Nov-23 11:00N 31°13' E 122°35'0 0.1
2017-Nov-23 10:27N 31°13' E 122°35'0 0.0
2017-Nov-23 09:54N 31°13' E 122°35'0 0.0
2017-Nov-23 09:18N 31°13' E 122°35'0 0.1
2017-Nov-23 08:42N 31°13' E 122°35'0 0.0
2017-Nov-23 06:30N 31°13' E 122°35'0 0.1
2017-Nov-23 03:15N 31°13' E 122°35'0 0.0
2017-Nov-23 01:57N 31°13' E 122°35'0 0.0
2017-Nov-23 01:30N 31°13' E 122°35'0 0.0
2017-Nov-23 00:54N 31°13' E 122°35'0 0.0
2017-Nov-23 00:30N 31°13' E 122°35'0 0.0
2017-Nov-23 00:00N 31°13' E 122°35'0 0.1
2017-Nov-22 23:12N 31°13' E 122°35'0 0.0
2017-Nov-22 23:00N 31°13' E 122°35'0 0.0
2017-Nov-22 22:30N 31°13' E 122°35'0 0.0
2017-Nov-22 21:57N 31°13' E 122°35'0 0.0
2017-Nov-22 21:30N 31°13' E 122°35'0 0.0
2017-Nov-22 20:54N 31°13' E 122°35'0 0.1
2017-Nov-22 20:21N 31°13' E 122°35'0 0.0
2017-Nov-22 19:48N 31°13' E 122°35'0 0.1
2017-Nov-22 19:18N 31°13' E 122°35'  
2017-Nov-18 08:43N 38°15' E 121°32'  

Dump ship's entire track history